createdAt,value
2023-01-09T00:00:00.673Z,12.5
2023-01-09T00:01:00.941Z,12.5
2023-01-09T00:02:00.466Z,12.5
2023-01-09T00:03:00.457Z,12.5
2023-01-09T00:04:00.669Z,12.4
2023-01-09T00:05:00.445Z,12.5
2023-01-09T00:06:00.505Z,12.5
2023-01-09T00:07:00.463Z,12.5
2023-01-09T00:08:00.459Z,12.4
2023-01-09T00:09:00.474Z,12.4
2023-01-09T00:10:00.656Z,12.4
2023-01-09T00:11:00.547Z,12.5
2023-01-09T00:12:00.508Z,12.5
2023-01-09T00:13:00.556Z,12.4
2023-01-09T00:14:00.502Z,12.5
2023-01-09T00:15:00.450Z,12.5
2023-01-09T00:16:00.528Z,12.5
2023-01-09T00:17:00.472Z,12.5
2023-01-09T00:18:00.499Z,12.5
2023-01-09T00:19:00.468Z,12.5
2023-01-09T00:20:00.447Z,12.5
2023-01-09T00:21:01.084Z,12.5
2023-01-09T00:22:00.454Z,12.5
2023-01-09T00:23:00.441Z,12.5
2023-01-09T00:24:00.517Z,12.5
2023-01-09T00:25:00.452Z,12.5
2023-01-09T00:26:09.321Z,12.4
2023-01-09T00:27:00.637Z,12.4
2023-01-09T00:28:00.449Z,12.3
2023-01-09T00:29:00.445Z,12.3
2023-01-09T00:30:00.884Z,12.3
2023-01-09T00:31:01.675Z,12.3
2023-01-09T00:32:00.641Z,12.3
2023-01-09T00:33:00.469Z,12.3
2023-01-09T00:34:02.524Z,12.3
2023-01-09T00:35:01.164Z,12.3
2023-01-09T00:36:00.927Z,12.4
2023-01-09T00:37:00.441Z,12.4
2023-01-09T00:38:00.576Z,12.5
2023-01-09T00:39:00.836Z,12.5
2023-01-09T00:40:00.435Z,12.5
2023-01-09T00:41:00.556Z,12.4
2023-01-09T00:42:00.490Z,12.4
2023-01-09T00:43:00.578Z,12.4
2023-01-09T00:44:03.603Z,12.4
2023-01-09T00:45:02.699Z,12.3
2023-01-09T00:46:02.833Z,12.3
2023-01-09T00:47:04.325Z,12.3
2023-01-09T00:48:06.087Z,12.3
2023-01-09T00:49:01.942Z,12.3
2023-01-09T00:50:05.742Z,12.3
2023-01-09T00:51:00.463Z,12.4
2023-01-09T00:52:00.912Z,12.4
2023-01-09T00:53:05.519Z,12.4
2023-01-09T00:54:01.814Z,12.4
2023-01-09T00:55:01.791Z,12.4
2023-01-09T00:56:03.309Z,12.4
2023-01-09T00:57:00.474Z,12.4
2023-01-09T00:58:00.508Z,12.5
2023-01-09T00:59:00.799Z,12.5
2023-01-09T01:00:00.586Z,12.5
2023-01-09T01:01:00.592Z,12.7
2023-01-09T01:02:00.779Z,12.8
2023-01-09T01:03:00.504Z,12.8
2023-01-09T01:04:00.519Z,12.9
2023-01-09T01:05:00.753Z,12.9
2023-01-09T01:06:01.158Z,13.0
2023-01-09T01:07:00.463Z,13.0
2023-01-09T01:08:00.421Z,13.1
2023-01-09T01:09:00.465Z,13.2
2023-01-09T01:10:00.485Z,13.2
2023-01-09T01:11:04.215Z,13.4
2023-01-09T01:12:01.066Z,13.4
2023-01-09T01:13:00.427Z,13.4
2023-01-09T01:14:00.786Z,13.4
2023-01-09T01:15:00.549Z,13.4
2023-01-09T01:16:03.811Z,13.5
2023-01-09T01:17:00.728Z,13.6
2023-01-09T01:18:00.889Z,13.6
2023-01-09T01:19:00.428Z,13.7
2023-01-09T01:20:00.475Z,13.7
2023-01-09T01:21:00.498Z,13.8
2023-01-09T01:22:00.727Z,13.9
2023-01-09T01:23:00.483Z,14.0
2023-01-09T01:24:00.448Z,14.1
2023-01-09T01:25:00.654Z,14.2
2023-01-09T01:26:10.263Z,14.3
2023-01-09T01:27:00.464Z,14.3
2023-01-09T01:28:00.504Z,14.4
2023-01-09T01:29:00.434Z,14.5
2023-01-09T01:30:00.475Z,14.5
2023-01-09T01:31:00.669Z,14.6
2023-01-09T01:32:00.474Z,14.7
2023-01-09T01:33:00.432Z,14.8
2023-01-09T01:34:00.498Z,14.8
2023-01-09T01:35:00.505Z,14.9
2023-01-09T01:36:01.653Z,14.9
2023-01-09T01:37:00.551Z,15.0
2023-01-09T01:38:00.453Z,15.0
2023-01-09T01:39:00.728Z,15.1
2023-01-09T01:40:00.618Z,15.1
2023-01-09T01:41:00.879Z,15.1
2023-01-09T01:42:02.112Z,15.1
2023-01-09T01:43:00.531Z,15.1
2023-01-09T01:44:01.916Z,15.1
2023-01-09T01:45:01.507Z,15.1
2023-01-09T01:46:00.495Z,15.1
2023-01-09T01:47:00.502Z,15.1
2023-01-09T01:48:06.085Z,15.2
2023-01-09T01:49:05.988Z,15.2
2023-01-09T01:50:07.230Z,15.2
2023-01-09T01:51:03.235Z,15.2
2023-01-09T01:52:00.555Z,15.2
2023-01-09T01:53:05.614Z,15.1
2023-01-09T01:54:02.416Z,15.2
2023-01-09T01:55:01.219Z,15.2
2023-01-09T01:56:03.854Z,15.2
2023-01-09T01:57:02.313Z,15.2
2023-01-09T01:58:02.135Z,15.2
2023-01-09T01:59:03.756Z,15.2
2023-01-09T02:00:00.979Z,15.1
2023-01-09T02:01:01.334Z,15.1
2023-01-09T02:02:02.130Z,15.2
2023-01-09T02:03:00.945Z,15.2
2023-01-09T02:04:01.080Z,15.2
2023-01-09T02:05:01.016Z,15.2
2023-01-09T02:06:01.717Z,15.2
2023-01-09T02:07:02.241Z,15.2
2023-01-09T02:08:00.519Z,15.3
2023-01-09T02:09:02.474Z,15.3
2023-01-09T02:10:00.825Z,15.3
2023-01-09T02:11:01.271Z,15.3
2023-01-09T02:12:00.439Z,15.3
2023-01-09T02:13:01.603Z,15.3
2023-01-09T02:14:01.062Z,15.3
2023-01-09T02:15:05.383Z,15.3
2023-01-09T02:16:10.315Z,15.3
2023-01-09T02:17:00.445Z,15.3
2023-01-09T02:18:01.481Z,15.3
2023-01-09T02:19:00.442Z,15.3
2023-01-09T02:20:10.491Z,15.3
2023-01-09T02:21:05.812Z,15.3
2023-01-09T02:22:12.041Z,15.3
2023-01-09T02:23:10.315Z,15.3
2023-01-09T02:24:10.319Z,15.3
2023-01-09T02:25:01.479Z,15.4
2023-01-09T02:26:10.370Z,15.4
2023-01-09T02:27:06.407Z,15.4
2023-01-09T02:28:00.451Z,15.3
2023-01-09T02:29:10.295Z,15.4
2023-01-09T02:30:01.479Z,15.4
2023-01-09T02:31:10.317Z,15.4
2023-01-09T02:32:01.519Z,15.5
2023-01-09T02:33:10.330Z,15.5
2023-01-09T02:34:00.438Z,15.4
2023-01-09T02:35:10.300Z,15.4
2023-01-09T02:36:10.457Z,15.4
2023-01-09T02:37:01.474Z,15.4
2023-01-09T02:38:09.460Z,15.4
2023-01-09T02:39:00.429Z,15.4
2023-01-09T02:40:07.805Z,15.4
2023-01-09T02:41:07.894Z,15.5
2023-01-09T02:42:09.897Z,15.5
2023-01-09T02:43:01.360Z,15.5
2023-01-09T02:44:09.821Z,15.5
2023-01-09T02:45:00.443Z,15.5
2023-01-09T02:46:00.490Z,15.4
2023-01-09T02:47:10.315Z,15.4
2023-01-09T02:48:00.429Z,15.4
2023-01-09T02:49:00.464Z,15.5
2023-01-09T02:50:02.929Z,15.4
2023-01-09T02:51:09.782Z,15.4
2023-01-09T02:52:10.473Z,15.4
2023-01-09T02:53:00.418Z,15.4
2023-01-09T02:54:04.586Z,15.4
2023-01-09T02:55:01.546Z,15.4
2023-01-09T02:56:00.468Z,15.4
2023-01-09T02:57:10.290Z,15.4
2023-01-09T02:58:10.299Z,15.4
2023-01-09T02:59:10.410Z,15.4
2023-01-09T03:00:00.432Z,15.4
2023-01-09T03:01:10.243Z,15.4
2023-01-09T03:02:10.302Z,15.4
2023-01-09T03:03:10.420Z,15.4
2023-01-09T03:04:07.289Z,15.4
2023-01-09T03:05:07.865Z,15.4
2023-01-09T03:06:06.117Z,15.4
2023-01-09T03:07:10.312Z,15.4
2023-01-09T03:08:06.758Z,15.4
2023-01-09T03:09:04.091Z,15.4
2023-01-09T03:10:05.392Z,15.4
2023-01-09T03:11:01.658Z,15.4
2023-01-09T03:12:08.361Z,15.4
2023-01-09T03:13:01.238Z,15.4
2023-01-09T03:14:05.178Z,15.3
2023-01-09T03:15:00.998Z,15.3
2023-01-09T03:16:04.466Z,15.3
2023-01-09T03:17:02.994Z,15.3
2023-01-09T03:18:00.842Z,15.4
2023-01-09T03:19:01.345Z,15.4
2023-01-09T03:20:01.934Z,15.4
2023-01-09T03:21:01.141Z,15.4
2023-01-09T03:22:01.016Z,15.4
2023-01-09T03:23:02.558Z,15.4
2023-01-09T03:24:01.662Z,15.3
2023-01-09T03:25:00.895Z,15.3
2023-01-09T03:26:00.464Z,15.4
2023-01-09T03:27:00.439Z,15.4
2023-01-09T03:28:03.307Z,15.4
2023-01-09T03:29:00.752Z,15.4
2023-01-09T03:30:00.454Z,15.4
2023-01-09T03:31:00.452Z,15.4
2023-01-09T03:32:00.604Z,15.5
2023-01-09T03:33:00.951Z,15.4
2023-01-09T03:34:00.508Z,15.4
2023-01-09T03:35:00.436Z,15.4
2023-01-09T03:36:00.649Z,15.4
2023-01-09T03:37:00.460Z,15.4
2023-01-09T03:38:00.545Z,15.4
2023-01-09T03:39:00.469Z,15.3
2023-01-09T03:40:00.603Z,15.3
2023-01-09T03:41:00.454Z,15.3
2023-01-09T03:42:00.476Z,15.3
2023-01-09T03:43:00.447Z,15.3
2023-01-09T03:44:00.525Z,15.3
2023-01-09T03:45:00.468Z,15.3
2023-01-09T03:46:00.949Z,15.3
2023-01-09T03:47:00.568Z,15.3
2023-01-09T03:48:00.450Z,15.3
2023-01-09T03:49:00.459Z,15.3
2023-01-09T03:50:00.668Z,15.2
2023-01-09T03:51:00.441Z,15.2
2023-01-09T03:52:00.462Z,15.2
2023-01-09T03:53:00.735Z,15.2
2023-01-09T03:54:00.464Z,15.2
2023-01-09T03:55:00.509Z,15.1
2023-01-09T03:56:00.593Z,15.1
2023-01-09T03:57:00.444Z,15.1
2023-01-09T03:58:00.579Z,15.1
2023-01-09T03:59:00.443Z,15.1
2023-01-09T04:00:00.478Z,15.1
2023-01-09T04:01:02.045Z,15.1
2023-01-09T04:02:03.518Z,15.1
2023-01-09T04:03:00.456Z,15.1
2023-01-09T04:04:00.520Z,15.0
2023-01-09T04:05:00.478Z,15.0
2023-01-09T04:06:00.470Z,14.9
2023-01-09T04:07:00.478Z,14.9
2023-01-09T04:08:00.856Z,14.9
2023-01-09T04:09:00.674Z,14.8
2023-01-09T04:10:00.523Z,14.8
2023-01-09T04:11:00.470Z,14.8
2023-01-09T04:12:00.575Z,14.9
2023-01-09T04:13:00.547Z,14.9
2023-01-09T04:14:00.469Z,14.9
2023-01-09T04:15:00.443Z,14.9
2023-01-09T04:16:00.589Z,14.9
2023-01-09T04:17:00.488Z,14.8
2023-01-09T04:18:00.471Z,14.8
2023-01-09T04:19:00.550Z,14.8
2023-01-09T04:20:00.640Z,14.8
2023-01-09T04:21:00.985Z,14.8
2023-01-09T04:22:00.439Z,14.7
2023-01-09T04:23:00.610Z,14.7
2023-01-09T04:24:00.438Z,14.7
2023-01-09T04:25:00.512Z,14.7
2023-01-09T04:26:00.485Z,14.7
2023-01-09T04:27:00.506Z,14.6
2023-01-09T04:28:00.554Z,14.6
2023-01-09T04:29:00.558Z,14.6
2023-01-09T04:30:00.441Z,14.6
2023-01-09T04:31:00.634Z,14.6
2023-01-09T04:32:00.555Z,14.6
2023-01-09T04:33:00.457Z,14.6
2023-01-09T04:34:00.435Z,14.5
2023-01-09T04:35:00.450Z,14.5
2023-01-09T04:36:00.445Z,14.5
2023-01-09T04:37:00.452Z,14.5
2023-01-09T04:38:00.442Z,14.5
2023-01-09T04:39:00.623Z,14.5
2023-01-09T04:40:00.502Z,14.4
2023-01-09T04:41:00.497Z,14.4
2023-01-09T04:42:00.582Z,14.4
2023-01-09T04:43:00.643Z,14.4
2023-01-09T04:44:00.546Z,14.4
2023-01-09T04:45:00.449Z,14.4
2023-01-09T04:46:01.276Z,14.3
2023-01-09T04:47:00.440Z,14.4
2023-01-09T04:48:00.581Z,14.3
2023-01-09T04:49:00.462Z,14.3
2023-01-09T04:50:00.438Z,14.3
2023-01-09T04:51:00.447Z,14.3
2023-01-09T04:52:00.472Z,14.4
2023-01-09T04:53:00.462Z,14.3
2023-01-09T04:54:00.828Z,14.3
2023-01-09T04:55:00.456Z,14.3
2023-01-09T04:56:00.490Z,14.3
2023-01-09T04:57:00.427Z,14.3
2023-01-09T04:58:00.471Z,14.3
2023-01-09T04:59:00.694Z,14.3
2023-01-09T05:00:00.839Z,14.3
2023-01-09T05:01:00.596Z,14.2
2023-01-09T05:02:00.656Z,14.3
2023-01-09T05:03:00.439Z,14.2
2023-01-09T05:04:00.936Z,14.2
2023-01-09T05:05:00.692Z,14.2
2023-01-09T05:06:00.646Z,14.2
2023-01-09T05:07:00.590Z,14.2
2023-01-09T05:08:00.467Z,14.3
2023-01-09T05:09:00.679Z,14.3
2023-01-09T05:10:00.978Z,14.3
2023-01-09T05:11:00.451Z,14.3
2023-01-09T05:12:01.907Z,14.3
2023-01-09T05:13:00.465Z,14.3
2023-01-09T05:14:00.471Z,14.3
2023-01-09T05:15:00.706Z,14.3
2023-01-09T05:16:00.713Z,14.3
2023-01-09T05:17:00.492Z,14.3
2023-01-09T05:18:00.473Z,14.2
2023-01-09T05:19:00.546Z,14.3
2023-01-09T05:20:00.451Z,14.3
2023-01-09T05:21:00.727Z,14.3
2023-01-09T05:22:00.457Z,14.3
2023-01-09T05:23:00.433Z,14.4
2023-01-09T05:24:00.472Z,14.3
2023-01-09T05:25:00.733Z,14.4
2023-01-09T05:26:00.529Z,14.3
2023-01-09T05:27:00.588Z,14.3
2023-01-09T05:28:00.446Z,14.3
2023-01-09T05:29:00.476Z,14.3
2023-01-09T05:30:00.542Z,14.3
2023-01-09T05:31:00.463Z,14.3
2023-01-09T05:32:00.681Z,14.3
2023-01-09T05:33:00.474Z,14.3
2023-01-09T05:34:00.454Z,14.3
2023-01-09T05:35:00.451Z,14.4
2023-01-09T05:36:00.526Z,14.4
2023-01-09T05:37:00.599Z,14.4
2023-01-09T05:38:00.861Z,14.4
2023-01-09T05:39:00.523Z,14.4
2023-01-09T05:40:00.491Z,14.4
2023-01-09T05:41:00.452Z,14.4
2023-01-09T05:42:00.441Z,14.4
2023-01-09T05:43:00.587Z,14.4
2023-01-09T05:44:00.430Z,14.4
2023-01-09T05:45:00.436Z,14.4
2023-01-09T05:46:00.502Z,14.3
2023-01-09T05:47:02.663Z,14.3
2023-01-09T05:48:00.607Z,14.3
2023-01-09T05:49:00.713Z,14.3
2023-01-09T05:50:00.543Z,14.3
2023-01-09T05:51:00.484Z,14.3
2023-01-09T05:52:00.483Z,14.3
2023-01-09T05:53:00.437Z,14.3
2023-01-09T05:54:00.482Z,14.3
2023-01-09T05:55:00.638Z,14.3
2023-01-09T05:56:00.430Z,14.2
2023-01-09T05:57:00.465Z,14.2
2023-01-09T05:58:00.485Z,14.2
2023-01-09T05:59:00.461Z,14.2
2023-01-09T06:00:00.778Z,14.1
2023-01-09T06:01:00.533Z,14.1
2023-01-09T06:02:00.473Z,14.2
2023-01-09T06:03:00.494Z,14.1
2023-01-09T06:04:00.491Z,14.1
2023-01-09T06:05:00.536Z,14.1
2023-01-09T06:06:00.503Z,14.1
2023-01-09T06:07:00.508Z,14.1
2023-01-09T06:08:00.523Z,14.1
2023-01-09T06:09:00.466Z,14.1
2023-01-09T06:10:00.480Z,14.1
2023-01-09T06:11:00.759Z,14.1
2023-01-09T06:12:00.480Z,14.1
2023-01-09T06:13:00.668Z,14.1
2023-01-09T06:14:01.070Z,14.1
2023-01-09T06:15:00.454Z,14.1
2023-01-09T06:16:00.563Z,14.1
2023-01-09T06:17:00.479Z,14.1
2023-01-09T06:18:00.452Z,14.0
2023-01-09T06:19:00.510Z,14.0
2023-01-09T06:20:00.521Z,14.0
2023-01-09T06:21:00.452Z,14.0
2023-01-09T06:22:00.778Z,14.0
2023-01-09T06:23:00.559Z,14.0
2023-01-09T06:24:00.468Z,14.0
2023-01-09T06:25:00.479Z,14.0
2023-01-09T06:26:00.476Z,14.0
2023-01-09T06:27:00.456Z,14.0
2023-01-09T06:28:00.482Z,14.0
2023-01-09T06:29:00.489Z,13.9
2023-01-09T06:30:00.479Z,13.9
2023-01-09T06:31:00.506Z,13.9
2023-01-09T06:32:00.457Z,13.9
2023-01-09T06:33:00.666Z,13.9
2023-01-09T06:34:00.702Z,13.9
2023-01-09T06:35:00.560Z,13.9
2023-01-09T06:36:00.433Z,13.9
2023-01-09T06:37:00.474Z,13.9
2023-01-09T06:38:00.505Z,13.9
2023-01-09T06:39:00.471Z,13.9
2023-01-09T06:40:00.506Z,13.9
2023-01-09T06:41:00.448Z,13.9
2023-01-09T06:42:00.481Z,13.9
2023-01-09T06:43:00.461Z,13.9
2023-01-09T06:44:00.466Z,13.9
2023-01-09T06:45:00.711Z,13.9
2023-01-09T06:46:00.725Z,13.9
2023-01-09T06:47:00.455Z,13.9
2023-01-09T06:48:00.500Z,13.9
2023-01-09T06:49:00.528Z,13.9
2023-01-09T06:50:00.466Z,13.9
2023-01-09T06:51:01.067Z,13.9
2023-01-09T06:52:00.582Z,13.9
2023-01-09T06:53:00.519Z,13.9
2023-01-09T06:54:00.468Z,13.9
2023-01-09T06:55:00.714Z,13.9
2023-01-09T06:56:00.572Z,13.9
2023-01-09T06:57:00.797Z,13.9
2023-01-09T06:58:00.515Z,13.9
2023-01-09T06:59:00.470Z,13.9
2023-01-09T07:00:00.477Z,13.9
2023-01-09T07:01:00.596Z,13.9
2023-01-09T07:02:00.485Z,13.9
2023-01-09T07:03:00.526Z,13.9
2023-01-09T07:04:00.553Z,13.9
2023-01-09T07:05:00.443Z,13.9
2023-01-09T07:06:00.455Z,13.9
2023-01-09T07:07:00.653Z,13.8
2023-01-09T07:08:00.446Z,13.8
2023-01-09T07:09:00.597Z,13.8
2023-01-09T07:10:00.461Z,13.8
2023-01-09T07:11:00.671Z,13.8
2023-01-09T07:12:00.435Z,13.9
2023-01-09T07:13:00.479Z,13.9
2023-01-09T07:14:00.498Z,13.9
2023-01-09T07:15:00.533Z,13.9
2023-01-09T07:16:00.513Z,13.8
2023-01-09T07:17:00.474Z,13.8
2023-01-09T07:18:00.691Z,13.8
2023-01-09T07:19:00.455Z,13.8
2023-01-09T07:20:00.748Z,13.8
2023-01-09T07:21:00.481Z,13.8
2023-01-09T07:22:00.523Z,13.8
2023-01-09T07:23:00.501Z,13.8
2023-01-09T07:24:00.423Z,13.8
2023-01-09T07:25:00.504Z,13.8
2023-01-09T07:26:00.548Z,13.8
2023-01-09T07:27:00.621Z,13.8
2023-01-09T07:28:00.489Z,13.7
2023-01-09T07:29:00.593Z,13.7
2023-01-09T07:30:00.611Z,13.7
2023-01-09T07:31:00.515Z,13.7
2023-01-09T07:32:00.770Z,13.7
2023-01-09T07:33:02.494Z,13.7
2023-01-09T07:34:00.432Z,13.7
2023-01-09T07:35:00.446Z,13.7
2023-01-09T07:36:00.455Z,13.7
2023-01-09T07:37:00.534Z,13.7
2023-01-09T07:38:00.650Z,13.7
2023-01-09T07:39:00.467Z,13.6
2023-01-09T07:40:00.620Z,13.6
2023-01-09T07:41:00.508Z,13.6
2023-01-09T07:42:00.509Z,13.7
2023-01-09T07:43:00.574Z,13.7
2023-01-09T07:44:00.446Z,13.7
2023-01-09T07:45:00.538Z,13.7
2023-01-09T07:46:00.507Z,13.6
2023-01-09T07:47:00.456Z,13.6
2023-01-09T07:48:00.476Z,13.6
2023-01-09T07:49:00.486Z,13.7
2023-01-09T07:50:00.480Z,13.6
2023-01-09T07:51:01.287Z,13.6
2023-01-09T07:52:00.544Z,13.7
2023-01-09T07:53:00.436Z,13.8
2023-01-09T07:54:00.500Z,13.9
2023-01-09T07:55:00.517Z,14.0
2023-01-09T07:56:00.432Z,14.1
2023-01-09T07:57:00.510Z,14.2
2023-01-09T07:58:00.458Z,14.2
2023-01-09T07:59:00.521Z,14.3
2023-01-09T08:00:00.526Z,14.4
2023-01-09T08:01:00.483Z,14.5
2023-01-09T08:02:00.724Z,14.5
2023-01-09T08:03:00.528Z,14.6
2023-01-09T08:04:00.470Z,14.6
2023-01-09T08:05:00.456Z,14.8
2023-01-09T08:06:00.522Z,14.8
2023-01-09T08:07:00.428Z,14.9
2023-01-09T08:08:00.458Z,14.9
2023-01-09T08:09:00.635Z,14.9
2023-01-09T08:10:00.475Z,15.0
2023-01-09T08:11:00.476Z,15.1
2023-01-09T08:12:00.483Z,15.2
2023-01-09T08:13:00.690Z,15.2
2023-01-09T08:14:00.456Z,15.2
2023-01-09T08:15:00.481Z,15.2
2023-01-09T08:16:00.552Z,15.1
2023-01-09T08:17:00.568Z,15.2
2023-01-09T08:18:00.507Z,15.2
2023-01-09T08:19:00.429Z,15.3
2023-01-09T08:20:00.465Z,15.4
2023-01-09T08:21:00.520Z,15.4
2023-01-09T08:22:00.460Z,15.4
2023-01-09T08:23:00.580Z,15.5
2023-01-09T08:24:00.650Z,15.6
2023-01-09T08:25:00.442Z,15.5
2023-01-09T08:26:00.441Z,15.4
2023-01-09T08:27:00.447Z,15.4
2023-01-09T08:28:00.468Z,15.3
2023-01-09T08:29:00.718Z,15.3
2023-01-09T08:30:00.627Z,15.3
2023-01-09T08:31:00.463Z,15.4
2023-01-09T08:32:00.430Z,15.5
2023-01-09T08:33:00.449Z,15.5
2023-01-09T08:34:00.505Z,15.4
2023-01-09T08:35:00.672Z,15.4
2023-01-09T08:36:00.577Z,15.4
2023-01-09T08:37:00.534Z,15.3
2023-01-09T08:38:00.429Z,15.3
2023-01-09T08:39:00.449Z,15.3
2023-01-09T08:40:00.527Z,15.3
2023-01-09T08:41:00.469Z,15.4
2023-01-09T08:42:00.668Z,15.4
2023-01-09T08:43:00.459Z,15.3
2023-01-09T08:44:00.458Z,15.3
2023-01-09T08:45:00.436Z,15.2
2023-01-09T08:46:00.810Z,15.1
2023-01-09T08:47:00.470Z,15.1
2023-01-09T08:48:00.459Z,15.1
2023-01-09T08:49:00.439Z,15.1
2023-01-09T08:50:00.443Z,15.1
2023-01-09T08:51:00.462Z,15.1
2023-01-09T08:52:00.662Z,15.1
2023-01-09T08:53:00.467Z,15.1
2023-01-09T08:54:00.460Z,15.1
2023-01-09T08:55:00.707Z,15.1
2023-01-09T08:56:00.553Z,15.1
2023-01-09T08:57:00.769Z,15.1
2023-01-09T08:58:00.460Z,15.1
2023-01-09T08:59:00.432Z,15.1
2023-01-09T09:00:00.456Z,15.2
2023-01-09T09:01:03.661Z,15.2
2023-01-09T09:02:00.547Z,15.3
2023-01-09T09:03:00.692Z,15.3
2023-01-09T09:04:00.467Z,15.3
2023-01-09T09:05:00.428Z,15.3
2023-01-09T09:06:00.473Z,15.3
2023-01-09T09:07:00.512Z,15.3
2023-01-09T09:08:00.688Z,15.3
2023-01-09T09:09:00.785Z,15.4
2023-01-09T09:10:00.458Z,15.4
2023-01-09T09:11:00.563Z,15.4
2023-01-09T09:12:00.475Z,15.5
2023-01-09T09:13:00.533Z,15.5
2023-01-09T09:14:01.015Z,15.6
2023-01-09T09:15:00.762Z,15.6
2023-01-09T09:16:00.459Z,15.7
2023-01-09T09:17:00.681Z,15.8
2023-01-09T09:18:01.831Z,15.9
2023-01-09T09:19:00.681Z,16.0
2023-01-09T09:20:00.631Z,16.1
2023-01-09T09:21:00.453Z,16.2
2023-01-09T09:22:00.447Z,16.4
2023-01-09T09:23:00.464Z,16.5
2023-01-09T09:24:00.444Z,16.5
2023-01-09T09:25:00.453Z,16.5
2023-01-09T09:26:00.584Z,16.6
2023-01-09T09:27:00.515Z,16.6
2023-01-09T09:28:00.480Z,16.8
2023-01-09T09:29:00.544Z,16.8
2023-01-09T09:30:01.197Z,16.9
2023-01-09T09:31:00.615Z,17.1
2023-01-09T09:32:01.045Z,17.3
2023-01-09T09:33:01.957Z,17.2
2023-01-09T09:34:00.486Z,17.4
2023-01-09T09:35:00.610Z,17.6
2023-01-09T09:36:00.454Z,17.6
2023-01-09T09:37:00.533Z,17.5
2023-01-09T09:38:03.997Z,17.6
2023-01-09T09:39:00.493Z,17.7
2023-01-09T09:40:09.668Z,17.8
2023-01-09T09:41:10.372Z,17.8
2023-01-09T09:42:00.448Z,17.9
2023-01-09T09:43:10.299Z,18.2
2023-01-09T09:44:10.288Z,18.2
2023-01-09T09:45:03.809Z,18.3
2023-01-09T09:46:00.485Z,18.5
2023-01-09T09:47:10.401Z,18.8
2023-01-09T09:48:00.443Z,18.9
2023-01-09T09:49:07.008Z,18.8
2023-01-09T09:50:09.937Z,18.7
2023-01-09T09:51:10.294Z,18.9
2023-01-09T09:52:07.691Z,19.0
2023-01-09T09:53:06.152Z,19.1
2023-01-09T09:54:04.947Z,19.2
2023-01-09T09:55:04.641Z,19.3
2023-01-09T09:56:00.453Z,19.5
2023-01-09T09:57:02.645Z,19.6
2023-01-09T09:58:03.599Z,19.6
2023-01-09T09:59:03.245Z,19.8
2023-01-09T10:00:01.353Z,19.8
2023-01-09T10:01:00.731Z,19.7
2023-01-09T10:02:11.406Z,19.9
2023-01-09T10:03:03.014Z,19.8
2023-01-09T10:04:03.604Z,19.6
2023-01-09T10:05:06.771Z,19.7
2023-01-09T10:06:03.731Z,19.7
2023-01-09T10:07:02.101Z,19.8
2023-01-09T10:08:15.474Z,19.7
2023-01-09T10:09:06.304Z,19.6
2023-01-09T10:10:02.041Z,19.7
2023-01-09T10:11:00.502Z,19.7
2023-01-09T10:12:03.021Z,19.8
2023-01-09T10:13:00.750Z,19.8
2023-01-09T10:14:00.480Z,19.9
2023-01-09T10:15:06.059Z,20.1
2023-01-09T10:16:00.451Z,20.1
2023-01-09T10:17:10.326Z,20.2
2023-01-09T10:18:10.297Z,20.2
2023-01-09T10:19:03.838Z,20.0
2023-01-09T10:20:00.444Z,20.0
2023-01-09T10:21:10.992Z,20.1
2023-01-09T10:22:10.290Z,20.1
2023-01-09T10:23:01.491Z,20.1
2023-01-09T10:24:00.659Z,20.0
2023-01-09T10:25:07.836Z,20.0
2023-01-09T10:26:04.661Z,20.0
2023-01-09T10:27:06.012Z,20.1
2023-01-09T10:28:00.449Z,20.2
2023-01-09T10:29:00.458Z,20.4
2023-01-09T10:30:10.294Z,20.4
2023-01-09T10:31:06.989Z,20.4
2023-01-09T10:32:03.774Z,20.4
2023-01-09T10:33:05.611Z,20.4
2023-01-09T10:34:00.459Z,20.7
2023-01-09T10:35:00.622Z,20.8
2023-01-09T10:36:10.017Z,21.0
2023-01-09T10:37:07.475Z,21.1
2023-01-09T10:38:03.002Z,21.0
2023-01-09T10:39:02.006Z,21.1
2023-01-09T10:40:00.422Z,21.2
2023-01-09T10:41:04.493Z,21.1
2023-01-09T10:42:08.747Z,21.2
2023-01-09T10:43:06.002Z,21.0
2023-01-09T10:44:05.184Z,21.0
2023-01-09T10:45:01.484Z,21.2
2023-01-09T10:46:04.992Z,21.2
2023-01-09T10:47:03.028Z,21.3
2023-01-09T10:48:03.970Z,21.2
2023-01-09T10:49:01.174Z,21.3
2023-01-09T10:50:10.294Z,21.4
2023-01-09T10:51:02.396Z,21.3
2023-01-09T10:52:03.789Z,21.3
2023-01-09T10:53:04.273Z,21.3
2023-01-09T10:54:00.653Z,21.4
2023-01-09T10:55:03.921Z,21.4
2023-01-09T10:56:04.453Z,21.5
2023-01-09T10:57:06.222Z,21.6
2023-01-09T10:58:02.050Z,21.8
2023-01-09T10:59:00.624Z,21.9
2023-01-09T11:00:00.768Z,21.8
2023-01-09T11:01:00.446Z,21.8
2023-01-09T11:02:00.515Z,21.9
2023-01-09T11:03:00.499Z,21.6
2023-01-09T11:04:00.457Z,21.6
2023-01-09T11:05:00.891Z,21.6
2023-01-09T11:06:01.267Z,21.7
2023-01-09T11:07:04.799Z,22.0
2023-01-09T11:08:08.033Z,22.4
2023-01-09T11:09:00.867Z,22.3
2023-01-09T11:10:01.669Z,22.2
2023-01-09T11:11:01.788Z,21.9
2023-01-09T11:12:10.315Z,22.1
2023-01-09T11:13:10.380Z,22.2
2023-01-09T11:14:05.663Z,22.2
2023-01-09T11:15:10.348Z,22.2
2023-01-09T11:16:01.554Z,22.0
2023-01-09T11:17:01.677Z,21.7
2023-01-09T11:18:10.318Z,21.4
2023-01-09T11:19:00.540Z,21.2
2023-01-09T11:20:01.879Z,21.1
2023-01-09T11:21:10.408Z,21.1
2023-01-09T11:22:10.329Z,20.7
2023-01-09T11:23:00.441Z,20.6
2023-01-09T11:24:10.306Z,20.5
2023-01-09T11:25:01.341Z,20.4
2023-01-09T11:26:01.568Z,20.4
2023-01-09T11:27:10.339Z,20.3
2023-01-09T11:28:00.450Z,20.3
2023-01-09T11:29:05.526Z,20.2
2023-01-09T11:30:10.295Z,20.2
2023-01-09T11:31:01.542Z,20.1
2023-01-09T11:32:00.606Z,20.4
2023-01-09T11:33:10.377Z,20.5
2023-01-09T11:34:00.889Z,20.4
2023-01-09T11:35:03.662Z,20.3
2023-01-09T11:36:00.411Z,20.4
2023-01-09T11:37:02.434Z,20.3
2023-01-09T11:38:10.312Z,20.2
2023-01-09T11:39:00.531Z,20.1
2023-01-09T11:40:00.848Z,20.2
2023-01-09T11:41:02.120Z,20.1
2023-01-09T11:42:02.065Z,20.2
2023-01-09T11:43:03.661Z,20.5
2023-01-09T11:44:02.897Z,20.6
2023-01-09T11:45:00.669Z,20.6
2023-01-09T11:46:02.294Z,20.6
2023-01-09T11:47:00.568Z,20.5
2023-01-09T11:48:00.819Z,20.5
2023-01-09T11:49:01.396Z,20.5
2023-01-09T11:50:10.353Z,20.6
2023-01-09T11:51:01.593Z,20.4
2023-01-09T11:52:10.319Z,20.4
2023-01-09T11:53:10.320Z,20.5
2023-01-09T11:54:01.495Z,20.5
2023-01-09T11:55:04.224Z,20.5
2023-01-09T11:56:01.241Z,20.5
2023-01-09T11:57:00.632Z,20.2
2023-01-09T11:58:00.526Z,20.2
2023-01-09T11:59:00.462Z,20.2
2023-01-09T12:00:01.972Z,20.3
2023-01-09T12:01:10.367Z,20.3
2023-01-09T12:02:00.487Z,20.4
2023-01-09T12:03:03.819Z,20.4
2023-01-09T12:04:10.320Z,20.4
2023-01-09T12:05:00.441Z,20.5
2023-01-09T12:06:03.840Z,20.5
2023-01-09T12:07:07.876Z,20.5
2023-01-09T12:08:06.836Z,20.6
2023-01-09T12:09:01.818Z,20.5
2023-01-09T12:10:00.420Z,20.6
2023-01-09T12:11:10.297Z,20.7
2023-01-09T12:12:08.432Z,20.7
2023-01-09T12:13:10.316Z,20.7
2023-01-09T12:14:10.299Z,20.8
2023-01-09T12:15:00.495Z,20.8
2023-01-09T12:16:00.617Z,20.8
2023-01-09T12:17:10.337Z,20.8
2023-01-09T12:18:07.819Z,20.7
2023-01-09T12:19:00.438Z,20.7
2023-01-09T12:20:03.782Z,20.6
2023-01-09T12:21:10.320Z,20.7
2023-01-09T12:22:08.013Z,20.8
2023-01-09T12:23:10.327Z,20.9
2023-01-09T12:24:10.301Z,20.6
2023-01-09T12:25:07.866Z,20.6
2023-01-09T12:26:10.322Z,20.4
2023-01-09T12:27:01.543Z,20.6
2023-01-09T12:28:10.307Z,20.5
2023-01-09T12:29:00.421Z,20.6
2023-01-09T12:30:03.763Z,20.6
2023-01-09T12:31:03.881Z,20.5
2023-01-09T12:32:06.481Z,20.7
2023-01-09T12:33:07.688Z,20.7
2023-01-09T12:34:10.336Z,20.7
2023-01-09T12:35:07.227Z,20.8
2023-01-09T12:36:10.348Z,20.8
2023-01-09T12:37:11.668Z,20.8
2023-01-09T12:38:00.449Z,20.6
2023-01-09T12:39:04.697Z,20.6
2023-01-09T12:40:10.321Z,20.6
2023-01-09T12:41:00.483Z,20.7
2023-01-09T12:42:05.768Z,20.8
2023-01-09T12:43:07.880Z,21.1
2023-01-09T12:44:01.448Z,21.2
2023-01-09T12:45:07.553Z,21.4
2023-01-09T12:46:01.581Z,21.4
2023-01-09T12:47:04.129Z,21.3
2023-01-09T12:48:03.370Z,21.2
2023-01-09T12:49:08.903Z,21.2
2023-01-09T12:50:01.507Z,21.0
2023-01-09T12:51:03.823Z,20.8
2023-01-09T12:52:10.317Z,21.1
2023-01-09T12:53:10.294Z,21.3
2023-01-09T12:54:04.971Z,21.4
2023-01-09T12:55:10.341Z,21.4
2023-01-09T12:56:06.712Z,21.4
2023-01-09T12:57:02.647Z,21.5
2023-01-09T12:58:05.509Z,21.4
2023-01-09T12:59:10.327Z,21.4
2023-01-09T13:00:03.618Z,21.4
2023-01-09T13:01:03.774Z,21.2
2023-01-09T13:02:05.219Z,21.2
2023-01-09T13:03:12.833Z,21.2
2023-01-09T13:04:10.232Z,21.2
2023-01-09T13:05:05.833Z,21.0
2023-01-09T13:06:02.002Z,21.0
2023-01-09T13:07:02.519Z,21.0
2023-01-09T13:08:07.930Z,21.2
2023-01-09T13:09:10.286Z,21.1
2023-01-09T13:10:06.379Z,21.1
2023-01-09T13:11:05.616Z,21.3
2023-01-09T13:12:00.439Z,21.2
2023-01-09T13:13:06.641Z,21.3
2023-01-09T13:14:05.711Z,21.0
2023-01-09T13:15:03.026Z,20.9
2023-01-09T13:16:03.356Z,21.1
2023-01-09T13:17:01.720Z,21.2
2023-01-09T13:18:03.974Z,21.5